Decoded Metar for KMYL (MCCALL in ID, USA) (IATA:MYL) | Meteo·Mobile Aviation Weather
aviador You're here:

KMYL Decoded Metar

MCCALL in ID, USA
Report Time2018-09-21 17:51:00
UTC Time2018-09-21 18:20:30
Flight Rules vfr VFR
WindVRB at 03 kt
Visibility9999 m
Phenomena:N/A
Clouds:N/A
Expected CloudBase > 6,000 ft AGL from Temp-Dew spread
CeilingNone
Temp14°C (ISA +9)
Dew Point-1°C (36% RH)
AAT10.8°C
QNH1022 hPa
Density Alt5,863 ft
Elevation5,030 ft
Report Wrong Elevation
Raw Report
KMYL 211751Z AUTO VRB03KT 10SM CLR 14/M01 A3018 RMK AO2 SLP207
T01391006 10139 21006 58006=

Extra information for KMYL:More info

Metar Taf Metar & Taf Last 4 Metars F.Rules Stats Wind Profile Meteogram Temp Stats Airport Information Weather charts Add Link Nearby VenuesMetar ALERT Operation Metar Decoded Social comments

AIRNAV info for KMYL